sensor_id;sensor_type;location;lat;lon;timestamp;P1;durP1;ratioP1;P2;durP2;ratioP2
26936;SDS011;14495;48.116;11.676;2022-07-24T00:01:53;11.63;;;10.02;;
26936;SDS011;14495;48.116;11.676;2022-07-24T00:04:18;11.75;;;10.00;;
26936;SDS011;14495;48.116;11.676;2022-07-24T00:06:44;16.02;;;10.15;;
26936;SDS011;14495;48.116;11.676;2022-07-24T00:09:09;10.98;;;9.88;;
26936;SDS011;14495;48.116;11.676;2022-07-24T00:11:34;12.05;;;9.70;;
26936;SDS011;14495;48.116;11.676;2022-07-24T00:14:00;13.90;;;10.32;;
26936;SDS011;14495;48.116;11.676;2022-07-24T00:16:25;11.95;;;10.63;;
26936;SDS011;14495;48.116;11.676;2022-07-24T00:18:51;14.80;;;10.82;;
26936;SDS011;14495;48.116;11.676;2022-07-24T00:21:16;11.90;;;10.68;;
26936;SDS011;14495;48.116;11.676;2022-07-24T00:23:42;11.93;;;10.55;;
26936;SDS011;14495;48.116;11.676;2022-07-24T00:26:08;11.88;;;10.63;;
26936;SDS011;14495;48.116;11.676;2022-07-24T00:28:34;12.48;;;10.07;;
26936;SDS011;14495;48.116;11.676;2022-07-24T00:31:00;12.35;;;10.27;;
26936;SDS011;14495;48.116;11.676;2022-07-24T00:33:25;15.70;;;11.65;;
26936;SDS011;14495;48.116;11.676;2022-07-24T00:35:50;14.82;;;11.15;;
26936;SDS011;14495;48.116;11.676;2022-07-24T00:38:16;12.35;;;10.77;;
26936;SDS011;14495;48.116;11.676;2022-07-24T00:40:41;13.35;;;11.63;;
26936;SDS011;14495;48.116;11.676;2022-07-24T00:43:06;12.90;;;10.85;;
26936;SDS011;14495;48.116;11.676;2022-07-24T00:45:32;13.40;;;10.70;;
26936;SDS011;14495;48.116;11.676;2022-07-24T00:47:57;11.60;;;10.40;;
26936;SDS011;14495;48.116;11.676;2022-07-24T00:50:23;12.35;;;10.82;;
26936;SDS011;14495;48.116;11.676;2022-07-24T00:52:49;12.65;;;10.25;;
26936;SDS011;14495;48.116;11.676;2022-07-24T00:55:14;12.02;;;10.57;;
26936;SDS011;14495;48.116;11.676;2022-07-24T00:57:40;14.10;;;10.63;;
26936;SDS011;14495;48.116;11.676;2022-07-24T01:00:09;16.02;;;11.10;;
26936;SDS011;14495;48.116;11.676;2022-07-24T01:02:38;13.25;;;10.90;;
26936;SDS011;14495;48.116;11.676;2022-07-24T01:05:06;13.68;;;11.32;;
26936;SDS011;14495;48.116;11.676;2022-07-24T01:07:32;11.13;;;9.75;;
26936;SDS011;14495;48.116;11.676;2022-07-24T01:09:58;16.38;;;10.45;;
26936;SDS011;14495;48.116;11.676;2022-07-24T01:12:23;14.93;;;11.10;;
26936;SDS011;14495;48.116;11.676;2022-07-24T01:14:50;12.25;;;10.63;;
26936;SDS011;14495;48.116;11.676;2022-07-24T01:17:15;13.18;;;11.75;;
26936;SDS011;14495;48.116;11.676;2022-07-24T01:19:40;12.63;;;10.30;;
26936;SDS011;14495;48.116;11.676;2022-07-24T01:22:06;12.23;;;10.93;;
26936;SDS011;14495;48.116;11.676;2022-07-24T01:24:31;12.60;;;10.48;;
26936;SDS011;14495;48.116;11.676;2022-07-24T01:26:56;13.68;;;11.20;;
26936;SDS011;14495;48.116;11.676;2022-07-24T01:29:22;13.88;;;10.95;;
26936;SDS011;14495;48.116;11.676;2022-07-24T01:31:47;12.00;;;10.20;;
26936;SDS011;14495;48.116;11.676;2022-07-24T01:34:12;13.02;;;10.65;;
26936;SDS011;14495;48.116;11.676;2022-07-24T01:36:38;13.77;;;10.75;;
26936;SDS011;14495;48.116;11.676;2022-07-24T01:39:04;13.85;;;11.35;;
26936;SDS011;14495;48.116;11.676;2022-07-24T01:41:29;12.10;;;10.18;;
26936;SDS011;14495;48.116;11.676;2022-07-24T01:43:55;12.43;;;11.13;;
26936;SDS011;14495;48.116;11.676;2022-07-24T01:46:20;12.45;;;9.85;;
26936;SDS011;14495;48.116;11.676;2022-07-24T01:48:45;12.75;;;10.32;;
26936;SDS011;14495;48.116;11.676;2022-07-24T01:51:11;11.75;;;10.52;;
26936;SDS011;14495;48.116;11.676;2022-07-24T01:53:36;11.07;;;9.90;;
26936;SDS011;14495;48.116;11.676;2022-07-24T01:56:02;12.90;;;10.93;;
26936;SDS011;14495;48.116;11.676;2022-07-24T01:58:27;14.85;;;11.10;;
26936;SDS011;14495;48.116;11.676;2022-07-24T02:00:52;14.55;;;10.45;;
26936;SDS011;14495;48.116;11.676;2022-07-24T02:03:18;13.70;;;10.98;;
26936;SDS011;14495;48.116;11.676;2022-07-24T02:05:44;11.00;;;9.73;;
26936;SDS011;14495;48.116;11.676;2022-07-24T02:08:10;11.35;;;10.15;;
26936;SDS011;14495;48.116;11.676;2022-07-24T02:10:35;13.45;;;10.27;;
26936;SDS011;14495;48.116;11.676;2022-07-24T02:13:01;12.13;;;10.52;;
26936;SDS011;14495;48.116;11.676;2022-07-24T02:15:26;13.68;;;10.35;;
26936;SDS011;14495;48.116;11.676;2022-07-24T02:17:53;11.82;;;10.48;;
26936;SDS011;14495;48.116;11.676;2022-07-24T02:20:20;11.85;;;9.63;;
26936;SDS011;14495;48.116;11.676;2022-07-24T02:22:45;11.52;;;10.32;;
26936;SDS011;14495;48.116;11.676;2022-07-24T02:25:11;12.55;;;10.65;;
26936;SDS011;14495;48.116;11.676;2022-07-24T02:27:37;13.10;;;10.57;;
26936;SDS011;14495;48.116;11.676;2022-07-24T02:30:06;13.52;;;10.57;;
26936;SDS011;14495;48.116;11.676;2022-07-24T02:32:35;11.40;;;10.25;;
26936;SDS011;14495;48.116;11.676;2022-07-24T02:35:00;14.60;;;10.65;;
26936;SDS011;14495;48.116;11.676;2022-07-24T02:37:25;12.43;;;10.40;;
26936;SDS011;14495;48.116;11.676;2022-07-24T02:39:51;15.43;;;11.18;;
26936;SDS011;14495;48.116;11.676;2022-07-24T02:42:16;12.90;;;10.98;;
26936;SDS011;14495;48.116;11.676;2022-07-24T02:44:41;13.93;;;10.65;;
26936;SDS011;14495;48.116;11.676;2022-07-24T02:47:07;12.20;;;10.98;;
26936;SDS011;14495;48.116;11.676;2022-07-24T02:49:32;15.90;;;10.98;;
26936;SDS011;14495;48.116;11.676;2022-07-24T02:51:57;11.75;;;10.57;;
26936;SDS011;14495;48.116;11.676;2022-07-24T02:54:23;13.60;;;11.43;;
26936;SDS011;14495;48.116;11.676;2022-07-24T02:56:48;12.32;;;10.95;;
26936;SDS011;14495;48.116;11.676;2022-07-24T02:59:14;15.38;;;11.45;;
26936;SDS011;14495;48.116;11.676;2022-07-24T03:01:39;13.57;;;11.65;;
26936;SDS011;14495;48.116;11.676;2022-07-24T03:04:04;13.50;;;11.98;;
26936;SDS011;14495;48.116;11.676;2022-07-24T03:06:30;12.98;;;11.55;;
26936;SDS011;14495;48.116;11.676;2022-07-24T03:08:55;14.68;;;11.88;;
26936;SDS011;14495;48.116;11.676;2022-07-24T03:11:21;13.07;;;11.75;;
26936;SDS011;14495;48.116;11.676;2022-07-24T03:13:46;14.57;;;12.05;;
26936;SDS011;14495;48.116;11.676;2022-07-24T03:16:12;30.60;;;23.98;;
26936;SDS011;14495;48.116;11.676;2022-07-24T03:18:37;26.45;;;19.50;;
26936;SDS011;14495;48.116;11.676;2022-07-24T03:21:02;15.52;;;12.35;;
26936;SDS011;14495;48.116;11.676;2022-07-24T03:23:28;14.20;;;12.15;;
26936;SDS011;14495;48.116;11.676;2022-07-24T03:25:53;14.52;;;12.55;;
26936;SDS011;14495;48.116;11.676;2022-07-24T03:28:19;14.32;;;12.80;;
26936;SDS011;14495;48.116;11.676;2022-07-24T03:30:45;13.60;;;12.20;;
26936;SDS011;14495;48.116;11.676;2022-07-24T03:33:10;17.80;;;12.00;;
26936;SDS011;14495;48.116;11.676;2022-07-24T03:35:36;19.77;;;12.98;;
26936;SDS011;14495;48.116;11.676;2022-07-24T03:38:01;19.38;;;12.98;;
26936;SDS011;14495;48.116;11.676;2022-07-24T03:40:27;19.67;;;13.38;;
26936;SDS011;14495;48.116;11.676;2022-07-24T03:42:52;13.57;;;12.07;;
26936;SDS011;14495;48.116;11.676;2022-07-24T03:45:17;15.65;;;12.50;;
26936;SDS011;14495;48.116;11.676;2022-07-24T03:47:43;16.52;;;12.93;;
26936;SDS011;14495;48.116;11.676;2022-07-24T03:50:08;16.38;;;12.93;;
26936;SDS011;14495;48.116;11.676;2022-07-24T03:52:34;15.93;;;13.25;;
26936;SDS011;14495;48.116;11.676;2022-07-24T03:54:59;15.25;;;12.15;;
26936;SDS011;14495;48.116;11.676;2022-07-24T03:57:25;16.42;;;12.80;;
26936;SDS011;14495;48.116;11.676;2022-07-24T03:59:50;17.38;;;13.18;;
26936;SDS011;14495;48.116;11.676;2022-07-24T04:02:15;15.30;;;12.55;;
26936;SDS011;14495;48.116;11.676;2022-07-24T04:04:41;17.40;;;12.50;;
26936;SDS011;14495;48.116;11.676;2022-07-24T04:07:06;17.25;;;12.90;;
26936;SDS011;14495;48.116;11.676;2022-07-24T04:09:31;15.55;;;13.05;;
26936;SDS011;14495;48.116;11.676;2022-07-24T04:11:57;17.90;;;14.70;;
26936;SDS011;14495;48.116;11.676;2022-07-24T04:14:22;17.08;;;13.35;;
26936;SDS011;14495;48.116;11.676;2022-07-24T04:16:48;15.38;;;12.88;;
26936;SDS011;14495;48.116;11.676;2022-07-24T04:19:13;13.55;;;12.13;;
26936;SDS011;14495;48.116;11.676;2022-07-24T04:21:38;16.30;;;12.40;;
26936;SDS011;14495;48.116;11.676;2022-07-24T04:24:05;14.85;;;13.00;;
26936;SDS011;14495;48.116;11.676;2022-07-24T04:26:31;17.75;;;12.57;;
26936;SDS011;14495;48.116;11.676;2022-07-24T04:28:56;16.02;;;11.93;;
26936;SDS011;14495;48.116;11.676;2022-07-24T04:31:21;16.48;;;12.77;;
26936;SDS011;14495;48.116;11.676;2022-07-24T04:33:47;14.85;;;12.25;;
26936;SDS011;14495;48.116;11.676;2022-07-24T04:36:12;16.05;;;12.10;;
26936;SDS011;14495;48.116;11.676;2022-07-24T04:38:37;16.42;;;12.27;;
26936;SDS011;14495;48.116;11.676;2022-07-24T04:41:04;17.15;;;12.68;;
26936;SDS011;14495;48.116;11.676;2022-07-24T04:43:29;13.80;;;12.35;;
26936;SDS011;14495;48.116;11.676;2022-07-24T04:45:55;13.77;;;12.38;;
26936;SDS011;14495;48.116;11.676;2022-07-24T04:48:20;14.10;;;11.98;;
26936;SDS011;14495;48.116;11.676;2022-07-24T04:50:45;16.05;;;11.73;;
26936;SDS011;14495;48.116;11.676;2022-07-24T04:53:11;15.63;;;11.75;;
26936;SDS011;14495;48.116;11.676;2022-07-24T04:55:36;16.58;;;12.27;;
26936;SDS011;14495;48.116;11.676;2022-07-24T04:58:02;12.48;;;11.27;;
26936;SDS011;14495;48.116;11.676;2022-07-24T05:00:27;13.45;;;12.10;;
26936;SDS011;14495;48.116;11.676;2022-07-24T05:02:52;16.58;;;12.40;;
26936;SDS011;14495;48.116;11.676;2022-07-24T05:05:18;15.23;;;11.63;;
26936;SDS011;14495;48.116;11.676;2022-07-24T05:07:43;12.57;;;11.25;;
26936;SDS011;14495;48.116;11.676;2022-07-24T05:10:08;14.45;;;12.23;;
26936;SDS011;14495;48.116;11.676;2022-07-24T05:12:34;13.93;;;11.93;;
26936;SDS011;14495;48.116;11.676;2022-07-24T05:14:59;14.15;;;11.95;;
26936;SDS011;14495;48.116;11.676;2022-07-24T05:17:24;15.25;;;12.73;;
26936;SDS011;14495;48.116;11.676;2022-07-24T05:19:50;15.40;;;12.25;;
26936;SDS011;14495;48.116;11.676;2022-07-24T05:22:16;14.80;;;12.52;;
26936;SDS011;14495;48.116;11.676;2022-07-24T05:24:41;15.98;;;12.52;;
26936;SDS011;14495;48.116;11.676;2022-07-24T05:27:06;15.65;;;14.00;;
26936;SDS011;14495;48.116;11.676;2022-07-24T05:29:32;14.98;;;12.73;;
26936;SDS011;14495;48.116;11.676;2022-07-24T05:31:57;15.30;;;13.00;;
26936;SDS011;14495;48.116;11.676;2022-07-24T05:34:22;15.50;;;13.40;;
26936;SDS011;14495;48.116;11.676;2022-07-24T05:36:48;14.68;;;13.00;;
26936;SDS011;14495;48.116;11.676;2022-07-24T05:39:14;14.98;;;13.48;;
26936;SDS011;14495;48.116;11.676;2022-07-24T05:41:39;17.15;;;13.15;;
26936;SDS011;14495;48.116;11.676;2022-07-24T05:44:05;14.43;;;12.93;;
26936;SDS011;14495;48.116;11.676;2022-07-24T05:46:30;14.20;;;12.40;;
26936;SDS011;14495;48.116;11.676;2022-07-24T05:48:55;14.57;;;12.18;;
26936;SDS011;14495;48.116;11.676;2022-07-24T05:51:21;14.00;;;12.25;;
26936;SDS011;14495;48.116;11.676;2022-07-24T05:53:46;16.00;;;12.90;;
26936;SDS011;14495;48.116;11.676;2022-07-24T05:56:12;16.33;;;13.35;;
26936;SDS011;14495;48.116;11.676;2022-07-24T05:58:37;14.52;;;13.02;;
26936;SDS011;14495;48.116;11.676;2022-07-24T06:01:02;15.80;;;13.38;;
26936;SDS011;14495;48.116;11.676;2022-07-24T06:03:27;13.60;;;12.18;;
26936;SDS011;14495;48.116;11.676;2022-07-24T06:05:53;26.80;;;20.27;;
26936;SDS011;14495;48.116;11.676;2022-07-24T06:08:18;20.63;;;16.33;;
26936;SDS011;14495;48.116;11.676;2022-07-24T06:10:44;17.75;;;13.93;;
26936;SDS011;14495;48.116;11.676;2022-07-24T06:13:10;16.17;;;13.60;;
26936;SDS011;14495;48.116;11.676;2022-07-24T06:15:35;17.60;;;13.00;;
26936;SDS011;14495;48.116;11.676;2022-07-24T06:18:00;14.88;;;13.15;;
26936;SDS011;14495;48.116;11.676;2022-07-24T06:20:26;14.45;;;12.32;;
26936;SDS011;14495;48.116;11.676;2022-07-24T06:22:51;15.88;;;13.13;;
26936;SDS011;14495;48.116;11.676;2022-07-24T06:25:17;14.95;;;12.50;;
26936;SDS011;14495;48.116;11.676;2022-07-24T06:27:47;14.13;;;12.63;;
26936;SDS011;14495;48.116;11.676;2022-07-24T06:30:32;13.73;;;11.98;;
26936;SDS011;14495;48.116;11.676;2022-07-24T06:32:58;14.48;;;12.02;;
26936;SDS011;14495;48.116;11.676;2022-07-24T06:35:25;14.98;;;13.00;;
26936;SDS011;14495;48.116;11.676;2022-07-24T06:37:52;16.30;;;12.10;;
26936;SDS011;14495;48.116;11.676;2022-07-24T06:40:17;13.07;;;11.55;;
26936;SDS011;14495;48.116;11.676;2022-07-24T06:42:44;17.38;;;11.88;;
26936;SDS011;14495;48.116;11.676;2022-07-24T06:45:11;13.18;;;11.40;;
26936;SDS011;14495;48.116;11.676;2022-07-24T06:47:37;14.80;;;11.55;;
26936;SDS011;14495;48.116;11.676;2022-07-24T06:50:03;14.70;;;11.63;;
26936;SDS011;14495;48.116;11.676;2022-07-24T06:52:28;12.50;;;10.57;;
26936;SDS011;14495;48.116;11.676;2022-07-24T06:54:54;14.95;;;10.30;;
26936;SDS011;14495;48.116;11.676;2022-07-24T06:57:19;11.95;;;9.98;;
26936;SDS011;14495;48.116;11.676;2022-07-24T06:59:45;15.48;;;10.45;;
26936;SDS011;14495;48.116;11.676;2022-07-24T07:02:10;11.65;;;9.93;;
26936;SDS011;14495;48.116;11.676;2022-07-24T07:04:36;13.10;;;10.07;;
26936;SDS011;14495;48.116;11.676;2022-07-24T07:07:02;12.45;;;10.07;;
26936;SDS011;14495;48.116;11.676;2022-07-24T07:09:28;14.00;;;9.73;;
26936;SDS011;14495;48.116;11.676;2022-07-24T07:11:53;11.40;;;9.18;;
26936;SDS011;14495;48.116;11.676;2022-07-24T07:14:19;9.82;;;8.82;;
26936;SDS011;14495;48.116;11.676;2022-07-24T07:16:44;10.25;;;8.98;;
26936;SDS011;14495;48.116;11.676;2022-07-24T07:19:10;14.38;;;9.18;;
26936;SDS011;14495;48.116;11.676;2022-07-24T07:21:35;11.35;;;8.48;;
26936;SDS011;14495;48.116;11.676;2022-07-24T07:24:02;11.40;;;8.55;;
26936;SDS011;14495;48.116;11.676;2022-07-24T07:26:27;11.00;;;8.10;;
26936;SDS011;14495;48.116;11.676;2022-07-24T07:28:53;11.05;;;8.77;;
26936;SDS011;14495;48.116;11.676;2022-07-24T07:31:18;10.73;;;8.95;;
26936;SDS011;14495;48.116;11.676;2022-07-24T07:33:43;10.70;;;8.30;;
26936;SDS011;14495;48.116;11.676;2022-07-24T07:36:09;18.08;;;8.23;;
26936;SDS011;14495;48.116;11.676;2022-07-24T07:38:34;9.57;;;8.10;;
26936;SDS011;14495;48.116;11.676;2022-07-24T07:41:02;11.35;;;7.72;;
26936;SDS011;14495;48.116;11.676;2022-07-24T07:43:28;11.10;;;7.38;;
26936;SDS011;14495;48.116;11.676;2022-07-24T07:45:53;9.48;;;7.82;;
26936;SDS011;14495;48.116;11.676;2022-07-24T07:48:18;11.43;;;8.32;;
26936;SDS011;14495;48.116;11.676;2022-07-24T07:50:44;12.25;;;8.07;;
26936;SDS011;14495;48.116;11.676;2022-07-24T07:53:09;11.98;;;7.40;;
26936;SDS011;14495;48.116;11.676;2022-07-24T07:55:34;9.50;;;7.75;;
26936;SDS011;14495;48.116;11.676;2022-07-24T07:58:00;10.23;;;8.30;;
26936;SDS011;14495;48.116;11.676;2022-07-24T08:00:27;11.23;;;7.80;;
26936;SDS011;14495;48.116;11.676;2022-07-24T08:02:53;16.20;;;8.25;;
26936;SDS011;14495;48.116;11.676;2022-07-24T08:05:18;8.98;;;7.78;;
26936;SDS011;14495;48.116;11.676;2022-07-24T08:07:44;7.93;;;7.05;;
26936;SDS011;14495;48.116;11.676;2022-07-24T08:10:09;8.77;;;7.75;;
26936;SDS011;14495;48.116;11.676;2022-07-24T08:12:34;9.57;;;7.35;;
26936;SDS011;14495;48.116;11.676;2022-07-24T08:15:00;12.13;;;7.45;;
26936;SDS011;14495;48.116;11.676;2022-07-24T08:17:25;11.18;;;8.35;;
26936;SDS011;14495;48.116;11.676;2022-07-24T08:19:50;8.55;;;7.63;;
26936;SDS011;14495;48.116;11.676;2022-07-24T08:22:16;13.50;;;8.25;;
26936;SDS011;14495;48.116;11.676;2022-07-24T08:24:41;9.18;;;7.45;;
26936;SDS011;14495;48.116;11.676;2022-07-24T08:27:06;8.15;;;7.35;;
26936;SDS011;14495;48.116;11.676;2022-07-24T08:29:32;8.95;;;7.45;;
26936;SDS011;14495;48.116;11.676;2022-07-24T08:31:57;11.05;;;7.45;;
26936;SDS011;14495;48.116;11.676;2022-07-24T08:34:23;8.93;;;7.15;;
26936;SDS011;14495;48.116;11.676;2022-07-24T08:36:48;8.13;;;6.55;;
26936;SDS011;14495;48.116;11.676;2022-07-24T08:39:14;8.90;;;7.80;;
26936;SDS011;14495;48.116;11.676;2022-07-24T08:41:40;8.75;;;7.45;;
26936;SDS011;14495;48.116;11.676;2022-07-24T08:44:07;9.27;;;7.47;;
26936;SDS011;14495;48.116;11.676;2022-07-24T08:46:34;9.05;;;7.30;;
26936;SDS011;14495;48.116;11.676;2022-07-24T08:49:02;9.50;;;7.35;;
26936;SDS011;14495;48.116;11.676;2022-07-24T08:51:31;20.55;;;8.20;;
26936;SDS011;14495;48.116;11.676;2022-07-24T08:54:00;10.68;;;7.53;;
26936;SDS011;14495;48.116;11.676;2022-07-24T08:56:27;9.27;;;7.20;;
26936;SDS011;14495;48.116;11.676;2022-07-24T08:58:53;9.98;;;7.18;;
26936;SDS011;14495;48.116;11.676;2022-07-24T09:01:18;9.45;;;6.70;;
26936;SDS011;14495;48.116;11.676;2022-07-24T09:03:45;10.20;;;7.60;;
26936;SDS011;14495;48.116;11.676;2022-07-24T09:06:11;9.70;;;7.03;;
26936;SDS011;14495;48.116;11.676;2022-07-24T09:08:41;9.75;;;7.10;;
26936;SDS011;14495;48.116;11.676;2022-07-24T09:11:20;9.20;;;6.65;;
26936;SDS011;14495;48.116;11.676;2022-07-24T09:13:46;8.85;;;7.10;;
26936;SDS011;14495;48.116;11.676;2022-07-24T09:16:34;12.05;;;7.47;;
26936;SDS011;14495;48.116;11.676;2022-07-24T09:19:04;7.85;;;6.53;;
26936;SDS011;14495;48.116;11.676;2022-07-24T09:21:32;7.18;;;6.47;;
26936;SDS011;14495;48.116;11.676;2022-07-24T09:23:59;9.75;;;7.32;;
26936;SDS011;14495;48.116;11.676;2022-07-24T09:26:43;9.15;;;6.43;;
26936;SDS011;14495;48.116;11.676;2022-07-24T09:29:10;10.10;;;7.07;;
26936;SDS011;14495;48.116;11.676;2022-07-24T09:31:56;11.73;;;6.88;;
26936;SDS011;14495;48.116;11.676;2022-07-24T09:34:24;7.05;;;6.35;;
26936;SDS011;14495;48.116;11.676;2022-07-24T09:39:24;10.73;;;7.03;;
26936;SDS011;14495;48.116;11.676;2022-07-24T09:41:51;10.45;;;7.15;;
26936;SDS011;14495;48.116;11.676;2022-07-24T09:44:18;7.47;;;6.60;;
26936;SDS011;14495;48.116;11.676;2022-07-24T09:46:47;7.47;;;6.65;;
26936;SDS011;14495;48.116;11.676;2022-07-24T09:49:19;7.90;;;7.07;;
26936;SDS011;14495;48.116;11.676;2022-07-24T09:51:46;9.05;;;6.95;;
26936;SDS011;14495;48.116;11.676;2022-07-24T09:54:55;11.13;;;6.82;;
26936;SDS011;14495;48.116;11.676;2022-07-24T09:57:27;7.85;;;6.35;;
26936;SDS011;14495;48.116;11.676;2022-07-24T09:59:58;7.07;;;6.25;;
26936;SDS011;14495;48.116;11.676;2022-07-24T10:02:29;8.70;;;6.00;;
26936;SDS011;14495;48.116;11.676;2022-07-24T10:04:57;8.80;;;6.57;;
26936;SDS011;14495;48.116;11.676;2022-07-24T10:07:25;10.70;;;6.40;;
26936;SDS011;14495;48.116;11.676;2022-07-24T10:09:52;8.48;;;6.30;;
26936;SDS011;14495;48.116;11.676;2022-07-24T10:12:31;6.80;;;5.88;;
26936;SDS011;14495;48.116;11.676;2022-07-24T10:14:58;7.25;;;6.00;;
26936;SDS011;14495;48.116;11.676;2022-07-24T10:17:52;7.13;;;6.43;;
26936;SDS011;14495;48.116;11.676;2022-07-24T10:20:42;8.57;;;6.07;;
26936;SDS011;14495;48.116;11.676;2022-07-24T10:23:09;7.75;;;6.95;;
26936;SDS011;14495;48.116;11.676;2022-07-24T10:28:32;9.70;;;7.57;;
26936;SDS011;14495;48.116;11.676;2022-07-24T10:31:03;10.45;;;6.30;;
26936;SDS011;14495;48.116;11.676;2022-07-24T10:33:30;8.07;;;6.55;;
26936;SDS011;14495;48.116;11.676;2022-07-24T10:35:56;10.50;;;7.22;;
26936;SDS011;14495;48.116;11.676;2022-07-24T10:38:29;8.60;;;7.10;;
26936;SDS011;14495;48.116;11.676;2022-07-24T10:41:12;8.85;;;6.20;;
26936;SDS011;14495;48.116;11.676;2022-07-24T10:43:40;9.73;;;6.35;;
26936;SDS011;14495;48.116;11.676;2022-07-24T10:48:32;7.50;;;6.33;;
26936;SDS011;14495;48.116;11.676;2022-07-24T11:01:27;8.68;;;5.53;;
26936;SDS011;14495;48.116;11.676;2022-07-24T11:03:56;7.10;;;5.65;;
26936;SDS011;14495;48.116;11.676;2022-07-24T11:06:42;7.65;;;5.95;;
26936;SDS011;14495;48.116;11.676;2022-07-24T11:09:16;8.75;;;5.40;;
26936;SDS011;14495;48.116;11.676;2022-07-24T11:17:22;8.68;;;5.85;;
26936;SDS011;14495;48.116;11.676;2022-07-24T11:20:08;8.50;;;5.47;;
26936;SDS011;14495;48.116;11.676;2022-07-24T11:22:48;7.13;;;6.38;;
26936;SDS011;14495;48.116;11.676;2022-07-24T11:30:11;6.85;;;5.97;;
26936;SDS011;14495;48.116;11.676;2022-07-24T11:32:38;6.75;;;5.32;;
26936;SDS011;14495;48.116;11.676;2022-07-24T11:35:05;9.70;;;5.30;;
26936;SDS011;14495;48.116;11.676;2022-07-24T11:37:31;8.35;;;5.90;;
26936;SDS011;14495;48.116;11.676;2022-07-24T11:39:59;7.32;;;5.95;;
26936;SDS011;14495;48.116;11.676;2022-07-24T11:42:24;7.40;;;6.40;;
26936;SDS011;14495;48.116;11.676;2022-07-24T11:44:49;6.95;;;6.25;;
26936;SDS011;14495;48.116;11.676;2022-07-24T11:47:19;6.97;;;6.28;;
26936;SDS011;14495;48.116;11.676;2022-07-24T11:49:46;8.98;;;6.07;;
26936;SDS011;14495;48.116;11.676;2022-07-24T11:52:21;8.35;;;6.20;;
26936;SDS011;14495;48.116;11.676;2022-07-24T11:54:50;7.77;;;5.63;;
26936;SDS011;14495;48.116;11.676;2022-07-24T11:57:23;10.63;;;6.07;;
26936;SDS011;14495;48.116;11.676;2022-07-24T11:59:50;7.78;;;6.00;;
26936;SDS011;14495;48.116;11.676;2022-07-24T12:02:17;11.18;;;6.55;;
26936;SDS011;14495;48.116;11.676;2022-07-24T12:04:44;8.20;;;6.28;;
26936;SDS011;14495;48.116;11.676;2022-07-24T12:07:15;8.38;;;6.80;;
26936;SDS011;14495;48.116;11.676;2022-07-24T12:17:28;7.18;;;6.10;;
26936;SDS011;14495;48.116;11.676;2022-07-24T12:19:55;6.57;;;5.97;;
26936;SDS011;14495;48.116;11.676;2022-07-24T12:22:24;8.45;;;6.50;;
26936;SDS011;14495;48.116;11.676;2022-07-24T12:24:51;7.05;;;6.15;;
26936;SDS011;14495;48.116;11.676;2022-07-24T12:27:33;7.22;;;5.90;;
26936;SDS011;14495;48.116;11.676;2022-07-24T12:30:16;11.77;;;6.00;;
26936;SDS011;14495;48.116;11.676;2022-07-24T12:32:52;8.38;;;6.05;;
26936;SDS011;14495;48.116;11.676;2022-07-24T12:35:22;6.55;;;5.50;;
26936;SDS011;14495;48.116;11.676;2022-07-24T12:37:48;15.10;;;6.18;;
26936;SDS011;14495;48.116;11.676;2022-07-24T12:40:23;9.00;;;5.85;;
26936;SDS011;14495;48.116;11.676;2022-07-24T12:42:57;12.88;;;6.80;;
26936;SDS011;14495;48.116;11.676;2022-07-24T12:45:27;10.43;;;6.97;;
26936;SDS011;14495;48.116;11.676;2022-07-24T12:48:06;8.70;;;6.57;;
26936;SDS011;14495;48.116;11.676;2022-07-24T12:50:33;8.70;;;7.10;;
26936;SDS011;14495;48.116;11.676;2022-07-24T12:53:03;9.05;;;6.47;;
26936;SDS011;14495;48.116;11.676;2022-07-24T12:55:32;8.07;;;6.00;;
26936;SDS011;14495;48.116;11.676;2022-07-24T12:57:58;7.05;;;5.82;;
26936;SDS011;14495;48.116;11.676;2022-07-24T13:00:25;8.90;;;6.22;;
26936;SDS011;14495;48.116;11.676;2022-07-24T13:02:50;7.78;;;6.13;;
26936;SDS011;14495;48.116;11.676;2022-07-24T13:05:16;6.82;;;6.13;;
26936;SDS011;14495;48.116;11.676;2022-07-24T13:08:01;8.38;;;5.68;;
26936;SDS011;14495;48.116;11.676;2022-07-24T13:10:26;6.85;;;5.85;;
26936;SDS011;14495;48.116;11.676;2022-07-24T13:12:51;9.30;;;5.70;;
26936;SDS011;14495;48.116;11.676;2022-07-24T13:15:17;9.00;;;6.28;;
26936;SDS011;14495;48.116;11.676;2022-07-24T13:17:43;7.78;;;5.57;;
26936;SDS011;14495;48.116;11.676;2022-07-24T13:20:08;8.10;;;6.10;;
26936;SDS011;14495;48.116;11.676;2022-07-24T13:22:34;7.72;;;6.00;;
26936;SDS011;14495;48.116;11.676;2022-07-24T13:24:59;8.23;;;5.90;;
26936;SDS011;14495;48.116;11.676;2022-07-24T13:27:25;6.85;;;6.15;;
26936;SDS011;14495;48.116;11.676;2022-07-24T13:29:51;8.93;;;6.30;;
26936;SDS011;14495;48.116;11.676;2022-07-24T13:32:16;6.70;;;6.00;;
26936;SDS011;14495;48.116;11.676;2022-07-24T13:34:41;8.80;;;6.70;;
26936;SDS011;14495;48.116;11.676;2022-07-24T13:37:07;6.60;;;5.90;;
26936;SDS011;14495;48.116;11.676;2022-07-24T13:39:32;18.48;;;6.18;;
26936;SDS011;14495;48.116;11.676;2022-07-24T13:41:58;8.13;;;5.85;;
26936;SDS011;14495;48.116;11.676;2022-07-24T13:44:23;7.05;;;5.88;;
26936;SDS011;14495;48.116;11.676;2022-07-24T13:46:48;11.02;;;7.03;;
26936;SDS011;14495;48.116;11.676;2022-07-24T13:49:14;9.43;;;5.82;;
26936;SDS011;14495;48.116;11.676;2022-07-24T13:51:40;8.32;;;6.50;;
26936;SDS011;14495;48.116;11.676;2022-07-24T13:54:05;11.93;;;6.10;;
26936;SDS011;14495;48.116;11.676;2022-07-24T13:56:31;7.15;;;5.90;;
26936;SDS011;14495;48.116;11.676;2022-07-24T13:58:57;7.57;;;6.47;;
26936;SDS011;14495;48.116;11.676;2022-07-24T14:01:22;9.27;;;6.43;;
26936;SDS011;14495;48.116;11.676;2022-07-24T14:03:48;9.13;;;6.40;;
26936;SDS011;14495;48.116;11.676;2022-07-24T14:06:13;18.33;;;7.35;;
26936;SDS011;14495;48.116;11.676;2022-07-24T14:08:38;9.95;;;6.72;;
26936;SDS011;14495;48.116;11.676;2022-07-24T14:11:06;7.20;;;6.50;;
26936;SDS011;14495;48.116;11.676;2022-07-24T14:13:31;7.07;;;6.38;;
26936;SDS011;14495;48.116;11.676;2022-07-24T14:15:56;7.35;;;6.40;;
26936;SDS011;14495;48.116;11.676;2022-07-24T14:18:22;8.65;;;6.13;;
26936;SDS011;14495;48.116;11.676;2022-07-24T14:20:48;8.20;;;6.55;;
26936;SDS011;14495;48.116;11.676;2022-07-24T14:23:13;15.30;;;7.00;;
26936;SDS011;14495;48.116;11.676;2022-07-24T14:25:38;11.80;;;6.10;;
26936;SDS011;14495;48.116;11.676;2022-07-24T14:28:04;8.65;;;6.28;;
26936;SDS011;14495;48.116;11.676;2022-07-24T14:30:29;12.02;;;5.97;;
26936;SDS011;14495;48.116;11.676;2022-07-24T14:32:55;14.35;;;6.45;;
26936;SDS011;14495;48.116;11.676;2022-07-24T14:35:20;14.80;;;6.45;;
26936;SDS011;14495;48.116;11.676;2022-07-24T14:37:46;6.72;;;5.93;;
26936;SDS011;14495;48.116;11.676;2022-07-24T14:40:11;15.13;;;5.82;;
26936;SDS011;14495;48.116;11.676;2022-07-24T14:42:37;7.45;;;5.50;;
26936;SDS011;14495;48.116;11.676;2022-07-24T14:45:02;10.02;;;6.47;;
26936;SDS011;14495;48.116;11.676;2022-07-24T14:47:28;6.82;;;5.88;;
26936;SDS011;14495;48.116;11.676;2022-07-24T14:49:53;10.23;;;6.45;;
26936;SDS011;14495;48.116;11.676;2022-07-24T14:52:20;8.68;;;6.53;;
26936;SDS011;14495;48.116;11.676;2022-07-24T14:54:46;11.45;;;6.10;;
26936;SDS011;14495;48.116;11.676;2022-07-24T14:57:11;8.38;;;6.47;;